Time;durP1;ratioP1;P1;durP2;ratioP2;P2;SDS_P1;SDS_P2;PMS_P1;PMS_P2;Temp;Humidity;BMP_temperature;BMP_pressure;BME280_temperature;BME280_humidity;BME280_pressure;Samples;Min_cycle;Max_cycle;Signal;HPM_P1;HPM_P2
2023/06/16 00:01:35;;;;;;;3.63;2.45;;;22.70;72.70;;;;;;4264301;27;20051;-58
2023/06/16 00:03:38;;;;;;;3.97;2.78;;;22.70;72.50;;;;;;4264405;27;20043;-57
2023/06/16 00:05:42;;;;;;;6.50;2.83;;;22.60;72.50;;;;;;4264608;27;20077;-55
2023/06/16 00:07:48;;;;;;;4.88;3.05;;;22.60;72.80;;;;;;4264489;27;20050;-57
2023/06/16 00:09:50;;;;;;;8.00;3.28;;;22.50;72.70;;;;;;4263390;27;20070;-54
2023/06/16 00:11:54;;;;;;;6.53;3.22;;;22.60;72.60;;;;;;4266458;27;20045;-55
2023/06/16 00:13:57;;;;;;;4.55;3.35;;;22.50;72.50;;;;;;4267500;27;20544;-55
2023/06/16 00:15:59;;;;;;;5.80;3.03;;;22.50;73.30;;;;;;4268163;27;20449;-57
2023/06/16 00:18:01;;;;;;;5.97;3.25;;;22.50;72.80;;;;;;4267736;27;20070;-55
2023/06/16 00:20:07;;;;;;;3.85;2.75;;;22.50;72.40;;;;;;4267122;27;20043;-55
2023/06/16 00:22:10;;;;;;;4.90;3.17;;;22.40;73.70;;;;;;4252224;27;20104;-56
2023/06/16 00:24:14;;;;;;;3.22;2.92;;;22.40;73.50;;;;;;4250573;27;20044;-54
2023/06/16 00:26:16;;;;;;;6.47;2.80;;;22.40;73.20;;;;;;4250595;27;20046;-58
2023/06/16 00:28:19;;;;;;;6.85;3.63;;;22.40;74.00;;;;;;4249540;27;20085;-57
2023/06/16 00:30:21;;;;;;;6.53;3.00;;;22.40;73.70;;;;;;4250053;27;20072;-56
2023/06/16 00:32:23;;;;;;;3.38;2.92;;;22.40;73.60;;;;;;4250702;27;20054;-54
2023/06/16 00:34:25;;;;;;;7.35;3.10;;;22.30;73.20;;;;;;4250382;27;20569;-57
2023/06/16 00:36:28;;;;;;;10.02;3.13;;;22.40;72.00;;;;;;4250431;27;20098;-57
2023/06/16 00:38:30;;;;;;;4.43;3.03;;;22.40;71.50;;;;;;4249372;27;20512;-57
2023/06/16 00:40:34;;;;;;;5.75;2.67;;;22.40;71.50;;;;;;4249911;27;20051;-57
2023/06/16 00:42:36;;;;;;;5.72;2.65;;;22.40;71.30;;;;;;4250208;27;20100;-57
2023/06/16 00:44:38;;;;;;;4.00;2.67;;;22.40;71.10;;;;;;4250284;27;20116;-57
2023/06/16 00:46:40;;;;;;;5.78;2.90;;;22.40;71.40;;;;;;4250442;27;20047;-57
2023/06/16 00:48:43;;;;;;;8.38;3.17;;;22.40;72.10;;;;;;4263619;27;20050;-58
2023/06/16 00:50:45;;;;;;;9.70;3.08;;;22.40;71.70;;;;;;4267382;27;20404;-57
2023/06/16 00:52:47;;;;;;;5.10;3.20;;;22.40;72.20;;;;;;4267266;27;20118;-57
2023/06/16 00:54:50;;;;;;;8.05;3.63;;;22.30;71.90;;;;;;4267428;27;20049;-57
2023/06/16 00:56:53;;;;;;;5.22;2.92;;;22.30;72.70;;;;;;4267244;27;20046;-54
2023/06/16 00:58:56;;;;;;;3.65;2.63;;;22.20;74.10;;;;;;4265604;27;20126;-57
2023/06/16 01:00:59;;;;;;;4.88;3.03;;;22.20;73.30;;;;;;4266938;27;20050;-57
2023/06/16 01:03:04;;;;;;;5.85;2.97;;;22.20;72.80;;;;;;4267115;27;20043;-53
2023/06/16 01:05:07;;;;;;;5.47;2.95;;;22.20;72.70;;;;;;4267219;27;20437;-53
2023/06/16 01:07:13;;;;;;;6.68;2.88;;;22.20;72.60;;;;;;4266976;27;20859;-53
2023/06/16 01:09:21;;;;;;;6.50;3.30;;;22.20;72.30;;;;;;4266283;27;20468;-53
2023/06/16 01:11:33;;;;;;;8.30;3.13;;;22.20;72.50;;;;;;4266902;27;20135;-56
2023/06/16 01:13:48;;;;;;;6.10;2.70;;;22.20;72.60;;;;;;4266789;27;20050;-55
2023/06/16 01:15:51;;;;;;;3.60;2.83;;;22.20;72.40;;;;;;4266871;27;20377;-55
2023/06/16 01:17:57;;;;;;;8.07;2.80;;;22.20;72.60;;;;;;4248744;27;20100;-56
2023/06/16 01:20:08;;;;;;;8.07;3.17;;;22.20;72.50;;;;;;4266062;27;20121;-53
2023/06/16 01:22:16;;;;;;;5.55;2.70;;;22.10;72.70;;;;;;4266600;27;20142;-53
2023/06/16 01:24:24;;;;;;;9.55;2.70;;;22.10;72.60;;;;;;4266098;27;20042;-53
2023/06/16 01:26:28;;;;;;;7.68;2.90;;;22.10;72.80;;;;;;4264173;27;20099;-55
2023/06/16 01:28:32;;;;;;;6.85;2.47;;;22.10;72.90;;;;;;4248725;27;20070;-56
2023/06/16 01:30:36;;;;;;;3.50;2.30;;;22.10;72.70;;;;;;4249631;27;20055;-56
2023/06/16 01:32:40;;;;;;;8.30;2.83;;;22.00;72.70;;;;;;4249485;27;20484;-55
2023/06/16 01:34:43;;;;;;;12.73;3.08;;;22.00;72.70;;;;;;4249399;27;20377;-57
2023/06/16 01:36:45;;;;;;;12.43;2.90;;;22.00;72.80;;;;;;4249809;27;20050;-55
2023/06/16 01:38:48;;;;;;;6.78;2.90;;;22.00;72.70;;;;;;4248688;27;20043;-57
2023/06/16 01:40:54;;;;;;;4.97;2.90;;;21.90;72.70;;;;;;4249251;27;20054;-57
2023/06/16 01:42:57;;;;;;;10.75;3.00;;;21.90;72.80;;;;;;4249548;27;20043;-54
2023/06/16 01:44:59;;;;;;;6.65;2.67;;;21.90;73.10;;;;;;4249316;27;20514;-54
2023/06/16 01:47:05;;;;;;;5.13;2.67;;;21.90;73.40;;;;;;4249708;27;20051;-54
2023/06/16 01:49:08;;;;;;;4.35;2.20;;;21.90;73.10;;;;;;4265149;27;20077;-54
2023/06/16 01:51:10;;;;;;;2.70;2.40;;;21.90;73.30;;;;;;4266477;27;20050;-53
2023/06/16 01:53:12;;;;;;;5.18;3.17;;;21.80;73.30;;;;;;4266770;27;20121;-53
2023/06/16 01:55:14;;;;;;;5.70;2.65;;;21.80;73.30;;;;;;4266283;27;20091;-54
2023/06/16 01:57:18;;;;;;;6.00;2.60;;;21.80;73.30;;;;;;4265851;27;20066;-54
2023/06/16 01:59:20;;;;;;;8.75;2.70;;;21.80;73.40;;;;;;4265435;27;20100;-53
2023/06/16 02:01:27;;;;;;;4.82;2.60;;;21.70;73.50;;;;;;4247648;27;20138;-53
2023/06/16 02:03:34;;;;;;;5.32;2.38;;;21.70;73.50;;;;;;4266388;27;20142;-54
2023/06/16 02:05:40;;;;;;;4.82;2.67;;;21.70;73.80;;;;;;4266275;27;20111;-54
2023/06/16 02:07:44;;;;;;;5.30;2.47;;;21.70;73.70;;;;;;4266081;27;20082;-54
2023/06/16 02:09:48;;;;;;;5.68;2.75;;;21.60;74.50;;;;;;4265158;27;20050;-56
2023/06/16 02:11:52;;;;;;;5.07;2.75;;;21.60;74.50;;;;;;4265961;27;20043;-56
2023/06/16 02:13:55;;;;;;;7.95;3.10;;;21.60;74.00;;;;;;4266525;27;20054;-55
2023/06/16 02:15:58;;;;;;;5.10;2.47;;;21.60;74.00;;;;;;4248035;27;20122;-55
2023/06/16 02:18:02;;;;;;;6.95;3.40;;;21.50;74.60;;;;;;4265917;27;20057;-54
2023/06/16 02:20:06;;;;;;;5.27;2.90;;;21.50;74.00;;;;;;4265286;27;20074;-57
2023/06/16 02:22:08;;;;;;;6.55;3.20;;;21.50;74.10;;;;;;4250405;27;20061;-56
2023/06/16 02:24:11;;;;;;;6.65;3.13;;;21.50;73.80;;;;;;4248519;27;20122;-54
2023/06/16 02:26:13;;;;;;;5.28;2.88;;;21.50;74.20;;;;;;4248012;27;20047;-56
2023/06/16 02:28:15;;;;;;;7.00;2.90;;;21.50;74.20;;;;;;4248577;27;20062;-56
2023/06/16 02:30:19;;;;;;;5.35;2.95;;;21.40;75.80;;;;;;4247443;27;20047;-56
2023/06/16 02:32:21;;;;;;;4.80;3.10;;;21.40;75.90;;;;;;4248903;27;20047;-57
2023/06/16 02:34:23;;;;;;;5.80;3.15;;;21.40;75.50;;;;;;4248254;27;20499;-56
2023/06/16 02:36:26;;;;;;;5.85;3.15;;;21.30;75.60;;;;;;4248388;27;20131;-56
2023/06/16 02:38:30;;;;;;;8.30;2.97;;;21.30;75.70;;;;;;4248251;27;20039;-57
2023/06/16 02:40:32;;;;;;;6.22;2.75;;;21.30;75.50;;;;;;4247884;27;20086;-54
2023/06/16 02:42:34;;;;;;;7.35;3.17;;;21.20;75.70;;;;;;4248228;27;20097;-56
2023/06/16 02:44:36;;;;;;;7.38;3.42;;;21.20;75.70;;;;;;4248512;27;20066;-55
2023/06/16 02:46:40;;;;;;;3.78;2.60;;;21.30;75.60;;;;;;4248474;27;20053;-56
2023/06/16 02:48:42;;;;;;;3.55;2.60;;;21.20;76.40;;;;;;4261484;27;20118;-56
2023/06/16 02:50:44;;;;;;;4.13;2.80;;;21.10;77.40;;;;;;4265231;27;20066;-55
2023/06/16 02:52:48;;;;;;;8.55;2.97;;;21.10;77.40;;;;;;4265454;27;20552;-54
2023/06/16 02:54:50;;;;;;;10.25;3.42;;;21.00;77.80;;;;;;4264895;27;20136;-54
2023/06/16 02:56:52;;;;;;;6.28;2.70;;;20.90;78.20;;;;;;4265516;27;20074;-53
2023/06/16 02:58:55;;;;;;;8.20;3.17;;;20.90;79.20;;;;;;4264316;27;20043;-54
2023/06/16 03:00:57;;;;;;;8.45;2.58;;;20.80;78.40;;;;;;4264923;27;20691;-56
2023/06/16 03:03:01;;;;;;;4.32;2.75;;;20.80;79.20;;;;;;4265283;27;20113;-54
2023/06/16 03:05:04;;;;;;;6.00;3.42;;;20.80;79.30;;;;;;4265383;27;20396;-54
2023/06/16 03:07:06;;;;;;;9.35;2.75;;;20.70;79.10;;;;;;4265355;27;20078;-54
2023/06/16 03:09:09;;;;;;;4.95;3.03;;;20.70;79.10;;;;;;4245582;27;20051;-57
2023/06/16 03:11:11;;;;;;;4.57;3.08;;;20.70;78.80;;;;;;4265272;27;20054;-56
2023/06/16 03:13:13;;;;;;;6.95;3.03;;;20.70;79.10;;;;;;4265002;27;20453;-54
2023/06/16 03:15:15;;;;;;;4.88;2.92;;;20.70;79.60;;;;;;4264888;27;20086;-54
2023/06/16 03:17:20;;;;;;;4.10;3.05;;;20.60;79.00;;;;;;4264908;27;20492;-56
2023/06/16 03:19:24;;;;;;;4.85;3.25;;;20.60;79.10;;;;;;4263810;27;20113;-56
2023/06/16 03:21:27;;;;;;;5.93;3.15;;;20.60;78.80;;;;;;4265447;27;20523;-56
2023/06/16 03:23:29;;;;;;;4.75;2.75;;;20.60;78.80;;;;;;4264661;27;20047;-56
2023/06/16 03:25:31;;;;;;;6.63;2.97;;;20.60;78.80;;;;;;4265049;27;20049;-54
2023/06/16 03:27:33;;;;;;;6.72;3.22;;;20.60;78.70;;;;;;4252928;27;20050;-53
2023/06/16 03:29:36;;;;;;;4.50;2.80;;;20.60;79.10;;;;;;4246697;27;20135;-53
2023/06/16 03:31:39;;;;;;;5.68;3.33;;;20.60;79.70;;;;;;4247713;27;20107;-55
2023/06/16 03:33:41;;;;;;;9.43;3.00;;;20.60;80.10;;;;;;4247710;27;20100;-54
2023/06/16 03:35:44;;;;;;;8.50;3.03;;;20.60;80.40;;;;;;4247893;27;20071;-54
2023/06/16 03:37:46;;;;;;;7.43;3.40;;;20.40;80.40;;;;;;4247484;27;20043;-54
2023/06/16 03:39:48;;;;;;;6.57;3.30;;;20.50;80.20;;;;;;4246726;27;20506;-55
2023/06/16 03:41:51;;;;;;;5.45;3.25;;;20.50;80.40;;;;;;4247552;27;20484;-55
2023/06/16 03:43:53;;;;;;;4.93;2.90;;;20.50;81.40;;;;;;4247827;27;20143;-53
2023/06/16 03:45:55;;;;;;;8.30;4.03;;;20.50;80.60;;;;;;4248042;27;20091;-60
2023/06/16 03:47:58;;;;;;;6.43;3.10;;;20.50;80.40;;;;;;4256551;27;20392;-57
2023/06/16 03:50:01;;;;;;;10.73;3.40;;;20.50;80.30;;;;;;4263630;27;20042;-60
2023/06/16 03:52:05;;;;;;;6.43;3.20;;;20.60;80.80;;;;;;4264110;27;20425;-56
2023/06/16 03:54:07;;;;;;;7.47;3.05;;;20.60;81.10;;;;;;4264753;27;20122;-56
2023/06/16 03:56:09;;;;;;;4.75;3.03;;;20.60;81.30;;;;;;4264749;27;20072;-56
2023/06/16 03:58:17;;;;;;;5.45;2.88;;;20.60;81.80;;;;;;4264794;27;20127;-56
2023/06/16 04:00:19;;;;;;;;;;;20.60;81.90;;;;;;4264091;27;20043;-56
2023/06/16 04:02:21;;;;;;;9.13;3.95;;;20.60;81.10;;;;;;4264274;27;19972;-56
2023/06/16 04:04:25;;;;;;;7.88;3.83;;;20.50;80.50;;;;;;4264641;27;20123;-57
2023/06/16 04:06:27;;;;;;;9.25;4.05;;;20.50;80.10;;;;;;4264295;27;20063;-56
2023/06/16 04:08:30;;;;;;;10.35;3.75;;;20.60;79.60;;;;;;4264698;27;20066;-54
2023/06/16 04:10:33;;;;;;;8.57;3.58;;;20.70;79.30;;;;;;4263154;27;20049;-54
2023/06/16 04:12:35;;;;;;;7.13;3.65;;;20.70;79.30;;;;;;4264186;27;20046;-54
2023/06/16 04:14:37;;;;;;;7.82;3.63;;;20.70;79.30;;;;;;4264682;27;20403;-54
2023/06/16 04:16:42;;;;;;;8.68;3.40;;;20.70;79.10;;;;;;4264471;27;20117;-59
2023/06/16 04:18:48;;;;;;;6.68;3.22;;;20.70;79.10;;;;;;4264282;27;20457;-57
2023/06/16 04:20:50;;;;;;;7.28;3.08;;;20.70;78.80;;;;;;4259050;27;20043;-57
2023/06/16 04:22:53;;;;;;;4.97;3.40;;;20.70;78.90;;;;;;4247159;28;20058;-57
2023/06/16 04:24:56;;;;;;;10.80;4.20;;;20.70;79.00;;;;;;4247374;28;20043;-57
2023/06/16 04:26:58;;;;;;;7.63;3.80;;;20.70;79.10;;;;;;4247258;27;20039;-57
2023/06/16 04:29:03;;;;;;;13.25;4.20;;;20.70;79.10;;;;;;4245925;28;20048;-58
2023/06/16 04:31:06;;;;;;;7.45;3.70;;;20.70;78.80;;;;;;4247090;28;20424;-57
2023/06/16 04:33:08;;;;;;;10.70;4.05;;;20.70;78.70;;;;;;4246958;28;20043;-56
2023/06/16 04:35:11;;;;;;;19.77;5.07;;;20.70;78.80;;;;;;4246636;28;20051;-56
2023/06/16 04:37:14;;;;;;;14.30;3.70;;;20.70;78.60;;;;;;4247239;28;20084;-57
2023/06/16 04:39:16;;;;;;;8.68;3.67;;;20.70;78.60;;;;;;4245827;28;20114;-57
2023/06/16 04:41:20;;;;;;;15.18;3.65;;;20.70;78.80;;;;;;4246735;28;20051;-56
2023/06/16 04:43:22;;;;;;;10.07;3.60;;;20.80;78.80;;;;;;4247271;28;20386;-55
2023/06/16 04:45:24;;;;;;;6.80;3.67;;;20.80;78.60;;;;;;4247134;28;20069;-55
2023/06/16 04:47:27;;;;;;;12.82;4.00;;;20.80;78.60;;;;;;4250629;27;20058;-56
2023/06/16 04:49:29;;;;;;;6.60;3.25;;;20.80;78.60;;;;;;4262553;27;20039;-54
2023/06/16 04:51:33;;;;;;;10.13;3.92;;;20.80;78.80;;;;;;4264260;27;20046;-55
2023/06/16 04:53:36;;;;;;;10.27;3.63;;;20.80;78.60;;;;;;4264279;27;20117;-54
2023/06/16 04:55:38;;;;;;;7.35;3.95;;;20.80;78.70;;;;;;4263999;27;20608;-56
2023/06/16 04:57:42;;;;;;;8.20;4.15;;;20.80;78.60;;;;;;4265568;27;20051;-54
2023/06/16 04:59:44;;;;;;;11.23;4.22;;;20.80;78.60;;;;;;4265987;27;20046;-57
2023/06/16 05:01:46;;;;;;;10.52;3.63;;;20.90;78.60;;;;;;4267294;27;20051;-57
2023/06/16 05:03:48;;;;;;;6.32;3.33;;;20.90;78.50;;;;;;4267261;27;20484;-54
2023/06/16 05:05:50;;;;;;;15.27;4.25;;;21.00;78.70;;;;;;4267049;27;20069;-58
2023/06/16 05:07:52;;;;;;;16.08;3.80;;;21.00;78.70;;;;;;4267618;27;20122;-56
2023/06/16 05:09:54;;;;;;;20.15;4.72;;;21.00;78.80;;;;;;4247755;27;20051;-54
2023/06/16 05:11:56;;;;;;;15.20;3.97;;;21.10;78.60;;;;;;4267246;27;20400;-54
2023/06/16 05:14:00;;;;;;;13.85;4.38;;;21.00;78.90;;;;;;4266836;27;20053;-54
2023/06/16 05:16:02;;;;;;;13.75;4.90;;;21.10;78.80;;;;;;4266885;27;20453;-53
2023/06/16 05:18:05;;;;;;;19.23;4.50;;;21.20;79.20;;;;;;4267003;27;20049;-54
2023/06/16 05:20:09;;;;;;;19.58;4.18;;;21.20;78.90;;;;;;4265297;27;20038;-56
2023/06/16 05:22:11;;;;;;;8.18;4.30;;;21.20;78.80;;;;;;4266770;27;20391;-57
2023/06/16 05:24:13;;;;;;;12.82;3.95;;;21.20;78.10;;;;;;4266837;27;20047;-56
2023/06/16 05:26:15;;;;;;;14.43;4.45;;;21.20;78.70;;;;;;4266199;27;20050;-56
2023/06/16 05:28:17;;;;;;;11.43;4.75;;;21.20;79.30;;;;;;4249421;27;20131;-56
2023/06/16 05:30:20;;;;;;;10.00;4.28;;;21.20;78.70;;;;;;4248393;27;20051;-56
2023/06/16 05:32:23;;;;;;;8.13;4.43;;;21.30;78.60;;;;;;4249503;27;20070;-58
2023/06/16 05:34:25;;;;;;;10.02;3.95;;;21.30;78.40;;;;;;4249054;27;20050;-58
2023/06/16 05:36:29;;;;;;;11.70;4.55;;;21.40;78.40;;;;;;4249611;27;20081;-57
2023/06/16 05:38:31;;;;;;;11.10;3.95;;;21.40;77.80;;;;;;4249479;27;20047;-57
2023/06/16 05:40:33;;;;;;;23.85;5.53;;;21.30;77.90;;;;;;4248361;27;20043;-56
2023/06/16 05:42:35;;;;;;;18.52;4.28;;;21.40;78.30;;;;;;4249075;27;20142;-56
2023/06/16 05:44:37;;;;;;;15.77;4.20;;;21.40;78.00;;;;;;4249118;27;20039;-58
2023/06/16 05:46:41;;;;;;;10.52;4.18;;;21.40;78.30;;;;;;4231137;28;20089;-55
2023/06/16 05:48:44;;;;;;;11.75;4.30;;;21.50;78.40;;;;;;4263197;27;20614;-55
2023/06/16 05:50:47;;;;;;;13.70;4.28;;;21.50;78.00;;;;;;4265284;27;20407;-56
2023/06/16 05:52:49;;;;;;;10.10;4.45;;;21.50;77.80;;;;;;4266243;27;20053;-55
2023/06/16 05:54:51;;;;;;;11.07;4.20;;;21.50;77.30;;;;;;4266493;27;20047;-55
2023/06/16 05:56:53;;;;;;;9.73;3.85;;;21.60;77.20;;;;;;4266357;27;20054;-55
2023/06/16 05:58:55;;;;;;;13.32;4.75;;;21.60;77.20;;;;;;4266324;27;20050;-55
2023/06/16 06:00:57;;;;;;;11.30;4.15;;;21.70;77.00;;;;;;4264974;27;20122;-56
2023/06/16 06:03:00;;;;;;;15.95;4.55;;;21.70;76.80;;;;;;4265618;27;20460;-55
2023/06/16 06:05:04;;;;;;;11.40;3.92;;;21.70;77.30;;;;;;4265943;27;20042;-54
2023/06/16 06:07:06;;;;;;;8.80;4.78;;;21.70;77.40;;;;;;4265961;27;20074;-56
2023/06/16 06:09:08;;;;;;;11.93;4.72;;;21.80;76.60;;;;;;4265586;27;20437;-55
2023/06/16 06:11:11;;;;;;;12.43;4.68;;;21.90;76.10;;;;;;4247055;27;20043;-55
2023/06/16 06:13:13;;;;;;;15.85;4.50;;;21.90;75.30;;;;;;4247671;27;20043;-56
2023/06/16 06:15:17;;;;;;;13.70;5.65;;;21.90;75.20;;;;;;4266049;27;20047;-57
2023/06/16 06:17:19;;;;;;;6.93;4.53;;;21.90;75.00;;;;;;4265737;27;20068;-55
2023/06/16 06:19:24;;;;;;;17.13;4.88;;;21.90;75.10;;;;;;4246877;27;20100;-54
2023/06/16 06:21:26;;;;;;;10.80;4.70;;;21.90;74.70;;;;;;4256166;27;20138;-54
2023/06/16 06:23:28;;;;;;;12.25;5.03;;;21.80;74.90;;;;;;4248568;27;20142;-55
2023/06/16 06:25:30;;;;;;;12.32;5.00;;;21.80;74.90;;;;;;4248560;27;20047;-54
2023/06/16 06:27:32;;;;;;;9.75;5.30;;;21.90;75.10;;;;;;4248677;27;20053;-54
2023/06/16 06:29:34;;;;;;;31.67;6.00;;;21.90;75.40;;;;;;4247568;27;20043;-54
2023/06/16 06:31:36;;;;;;;41.53;8.15;;;22.00;75.60;;;;;;4248072;27;20051;-55
2023/06/16 06:33:39;;;;;;;22.77;5.13;;;22.10;75.70;;;;;;4248721;27;20051;-55
2023/06/16 06:35:42;;;;;;;22.45;5.70;;;22.10;75.20;;;;;;4248461;27;20455;-54
2023/06/16 06:37:45;;;;;;;14.13;5.43;;;22.10;75.30;;;;;;4248748;27;20388;-54
2023/06/16 06:39:48;;;;;;;10.80;5.72;;;22.10;74.50;;;;;;4247738;27;20407;-54
2023/06/16 06:41:50;;;;;;;13.07;5.65;;;22.20;75.30;;;;;;4248609;27;20524;-54
2023/06/16 06:43:52;;;;;;;12.52;5.05;;;22.10;74.90;;;;;;4248529;27;20054;-55
2023/06/16 06:45:54;;;;;;;14.35;4.28;;;22.20;74.90;;;;;;4248064;27;20518;-61
2023/06/16 06:47:56;;;;;;;8.63;4.40;;;22.30;75.10;;;;;;4255918;27;20437;-55
2023/06/16 06:49:59;;;;;;;19.10;4.95;;;22.40;75.00;;;;;;4246017;27;20043;-57
2023/06/16 06:52:03;;;;;;;20.25;5.10;;;22.30;74.60;;;;;;4265498;27;20408;-58
2023/06/16 06:54:07;;;;;;;13.38;5.13;;;22.40;75.00;;;;;;4265649;27;20051;-57
2023/06/16 06:56:09;;;;;;;18.35;5.45;;;22.60;76.20;;;;;;4265124;27;20065;-58
2023/06/16 06:58:11;;;;;;;14.52;4.40;;;22.70;75.00;;;;;;4265507;27;20047;-57
2023/06/16 07:00:14;;;;;;;28.70;5.97;;;22.90;74.30;;;;;;4245387;27;20118;-58
2023/06/16 07:02:17;;;;;;;13.73;5.28;;;23.10;73.60;;;;;;4265793;27;20050;-58
2023/06/16 07:04:19;;;;;;;21.05;5.60;;;23.10;73.10;;;;;;4265309;27;20419;-57
2023/06/16 07:06:22;;;;;;;28.35;6.13;;;23.20;72.70;;;;;;4265563;27;20046;-58
2023/06/16 07:08:25;;;;;;;42.47;6.15;;;23.30;73.20;;;;;;4265937;27;20049;-59
2023/06/16 07:10:29;;;;;;;47.33;6.95;;;23.50;72.10;;;;;;4264865;27;20055;-58
2023/06/16 07:12:32;;;;;;;62.63;7.80;;;23.70;71.50;;;;;;4265516;27;20053;-60
2023/06/16 07:14:34;;;;;;;29.38;6.00;;;23.70;71.20;;;;;;4264904;27;20046;-56
2023/06/16 07:16:36;;;;;;;20.90;5.70;;;23.80;71.20;;;;;;4265224;27;20072;-58
2023/06/16 07:18:38;;;;;;;17.15;5.30;;;24.00;71.10;;;;;;4264928;27;20043;-55
2023/06/16 07:20:41;;;;;;;14.95;4.85;;;24.00;70.40;;;;;;4263143;27;20459;-60
2023/06/16 07:22:45;;;;;;;26.52;4.97;;;24.10;69.90;;;;;;4265203;27;20421;-54
2023/06/16 07:24:48;;;;;;;16.08;5.55;;;24.20;70.10;;;;;;4264938;27;20035;-56
2023/06/16 07:26:50;;;;;;;20.73;5.90;;;24.20;69.90;;;;;;4259270;27;20148;-54
2023/06/16 07:28:53;;;;;;;24.80;5.30;;;24.30;70.20;;;;;;4247582;27;20070;-54
2023/06/16 07:30:55;;;;;;;18.60;5.60;;;24.40;71.00;;;;;;4246511;27;20070;-54
2023/06/16 07:32:58;;;;;;;108.22;11.15;;;24.60;69.60;;;;;;4247832;27;20132;-54
2023/06/16 07:35:00;;;;;;;56.58;7.60;;;24.70;69.10;;;;;;4247732;27;20459;-54
2023/06/16 07:37:02;;;;;;;26.92;5.53;;;24.70;69.60;;;;;;4247523;27;20058;-58
2023/06/16 07:39:04;;;;;;;16.38;5.10;;;24.70;69.40;;;;;;4247470;27;20122;-54
2023/06/16 07:41:08;;;;;;;27.10;5.57;;;24.80;69.20;;;;;;4246658;27;20054;-54
2023/06/16 07:43:10;;;;;;;20.23;4.60;;;24.80;68.00;;;;;;4247592;27;20404;-54
2023/06/16 07:45:12;;;;;;;18.08;5.13;;;25.00;68.90;;;;;;4247370;27;20073;-55
2023/06/16 07:47:14;;;;;;;13.30;4.90;;;25.20;68.90;;;;;;4249292;27;20481;-54
2023/06/16 07:49:17;;;;;;;24.92;5.82;;;25.20;69.30;;;;;;4264481;27;20046;-54
2023/06/16 07:51:20;;;;;;;16.23;5.00;;;25.30;68.90;;;;;;4263500;27;20081;-54
2023/06/16 07:53:22;;;;;;;17.20;5.22;;;25.30;68.40;;;;;;4264451;27;20589;-54
2023/06/16 07:55:24;;;;;;;23.83;4.95;;;25.30;68.80;;;;;;4264560;27;20066;-54
2023/06/16 07:57:28;;;;;;;18.00;5.18;;;25.50;69.00;;;;;;4264512;27;20045;-54
2023/06/16 07:59:32;;;;;;;12.02;4.90;;;25.60;67.00;;;;;;4263961;27;20054;-52
2023/06/16 08:01:34;;;;;;;15.70;4.93;;;25.60;66.80;;;;;;4263948;27;20305;-54
2023/06/16 08:03:37;;;;;;;19.92;5.80;;;25.60;66.70;;;;;;4264470;27;20043;-54
2023/06/16 08:05:40;;;;;;;11.23;4.50;;;25.60;66.90;;;;;;4264498;27;20043;-54
2023/06/16 08:07:43;;;;;;;19.95;4.78;;;25.60;67.30;;;;;;4264244;27;20056;-54
2023/06/16 08:09:45;;;;;;;33.42;6.75;;;25.70;67.30;;;;;;4263608;27;20039;-54
2023/06/16 08:11:47;;;;;;;14.48;5.03;;;25.90;67.70;;;;;;4264071;27;20049;-55
2023/06/16 08:13:51;;;;;;;19.42;5.22;;;25.80;67.30;;;;;;4264454;27;20053;-54
2023/06/16 08:15:53;;;;;;;12.57;4.72;;;25.80;66.70;;;;;;4264285;27;20046;-54
2023/06/16 08:17:55;;;;;;;12.52;4.55;;;25.90;65.50;;;;;;4264584;27;20523;-53
2023/06/16 08:19:57;;;;;;;21.63;5.07;;;25.90;65.30;;;;;;4263482;27;20066;-54
2023/06/16 08:22:00;;;;;;;19.13;5.03;;;25.90;64.80;;;;;;4249764;27;20555;-55
2023/06/16 08:24:02;;;;;;;19.17;4.95;;;26.10;65.00;;;;;;4247015;28;20046;-54
2023/06/16 08:26:05;;;;;;;12.25;4.70;;;26.00;65.30;;;;;;4246895;28;20047;-54
2023/06/16 08:28:07;;;;;;;12.02;4.35;;;26.10;64.90;;;;;;4246461;27;20050;-55
2023/06/16 08:30:15;;;;;;;8.07;4.55;;;26.20;64.40;;;;;;4246071;28;20477;-54
2023/06/16 08:32:18;;;;;;;10.48;4.63;;;26.20;64.20;;;;;;4248137;27;20043;-54
2023/06/16 08:34:20;;;;;;;19.95;5.47;;;26.20;63.80;;;;;;4250375;27;20039;-55
2023/06/16 08:36:24;;;;;;;20.35;5.13;;;26.30;64.20;;;;;;4250362;27;20070;-54
2023/06/16 08:38:27;;;;;;;12.27;4.67;;;26.30;64.10;;;;;;4251036;27;20495;-55
2023/06/16 08:40:30;;;;;;;10.30;4.30;;;26.40;63.80;;;;;;4249494;27;20843;-57
2023/06/16 08:42:36;;;;;;;17.10;4.75;;;26.40;64.10;;;;;;4249585;27;20051;-57
2023/06/16 08:44:39;;;;;;;10.73;4.70;;;26.50;64.30;;;;;;4250155;27;20051;-54
2023/06/16 08:46:44;;;;;;;14.15;4.22;;;26.50;62.70;;;;;;4250326;27;20078;-55
2023/06/16 08:48:46;;;;;;;13.83;4.63;;;26.60;62.60;;;;;;4264997;27;20043;-54
2023/06/16 08:50:48;;;;;;;14.57;5.03;;;26.70;62.30;;;;;;4266056;27;20157;-54
2023/06/16 08:52:52;;;;;;;13.27;4.20;;;26.80;61.50;;;;;;4267288;27;20043;-55
2023/06/16 08:55:01;;;;;;;14.18;4.82;;;26.90;61.20;;;;;;4267365;27;20472;-54
2023/06/16 08:57:09;;;;;;;16.08;4.72;;;27.00;62.00;;;;;;4266819;27;20069;-55
2023/06/16 08:59:11;;;;;;;15.15;4.68;;;27.00;61.90;;;;;;4267247;27;20043;-61
2023/06/16 09:01:16;;;;;;;9.77;4.13;;;26.90;61.20;;;;;;4266065;27;20438;-55
2023/06/16 09:03:21;;;;;;;15.88;4.32;;;26.90;60.00;;;;;;4267057;27;20039;-55
2023/06/16 09:05:24;;;;;;;;;;;27.00;58.70;;;;;;4267697;27;20042;-55
2023/06/16 09:07:27;;;;;;;15.15;4.22;;;27.00;58.50;;;;;;4267044;27;20355;-54
2023/06/16 09:09:29;;;;;;;14.80;4.03;;;26.90;59.20;;;;;;4266906;27;20046;-55
2023/06/16 09:11:31;;;;;;;16.77;4.15;;;26.90;58.90;;;;;;4265603;27;20070;-54
2023/06/16 09:13:34;;;;;;;11.10;3.88;;;27.00;58.80;;;;;;4266902;27;20099;-55
2023/06/16 09:15:36;;;;;;;20.13;4.70;;;27.00;58.00;;;;;;4266706;27;20349;-55
2023/06/16 09:17:40;;;;;;;11.30;3.70;;;27.00;57.80;;;;;;4266870;27;20204;-55
2023/06/16 09:19:47;;;;;;;18.47;5.23;;;27.20;58.20;;;;;;4266741;27;20042;-55
2023/06/16 09:21:53;;;;;;;14.55;4.78;;;27.20;58.20;;;;;;4265802;27;20515;-55
2023/06/16 09:24:00;;;;;;;13.13;4.00;;;27.40;58.50;;;;;;4266648;27;20068;-55
2023/06/16 09:26:11;;;;;;;12.98;4.07;;;27.50;59.30;;;;;;4266552;27;20043;-54
2023/06/16 09:28:13;;;;;;;10.05;3.78;;;27.60;58.90;;;;;;4249533;27;20480;-54
2023/06/16 09:30:18;;;;;;;18.55;4.47;;;27.60;58.30;;;;;;4248386;27;20131;-54
2023/06/16 09:32:21;;;;;;;20.80;4.82;;;27.70;58.20;;;;;;4249528;27;20412;-54
2023/06/16 09:34:32;;;;;;;18.95;4.10;;;27.80;57.60;;;;;;4251541;27;20039;-54
2023/06/16 09:36:37;;;;;;;12.65;4.65;;;27.90;57.00;;;;;;4266721;27;20046;-55
2023/06/16 09:38:42;;;;;;;19.90;5.47;;;27.90;57.70;;;;;;4266683;27;20087;-55
2023/06/16 09:40:44;;;;;;;74.07;7.15;;;27.90;58.00;;;;;;4265077;27;20043;-54
2023/06/16 09:42:50;;;;;;;25.25;6.10;;;27.90;56.00;;;;;;4266094;27;20055;-54
2023/06/16 09:44:52;;;;;;;66.63;7.53;;;28.00;55.00;;;;;;4265257;27;20093;-55
2023/06/16 09:46:54;;;;;;;21.98;4.90;;;28.10;55.00;;;;;;4266392;27;20110;-54
2023/06/16 09:48:57;;;;;;;57.75;6.22;;;28.20;55.30;;;;;;4249841;27;20050;-55
2023/06/16 09:50:59;;;;;;;14.85;3.78;;;28.30;54.90;;;;;;4248204;27;20112;-54
2023/06/16 09:53:06;;;;;;;20.65;4.20;;;28.40;54.90;;;;;;4249248;27;20462;-56
2023/06/16 09:55:10;;;;;;;18.70;3.83;;;28.30;54.30;;;;;;4248863;27;20134;-54
2023/06/16 09:57:15;;;;;;;5.78;2.63;;;28.30;53.70;;;;;;4249225;27;20047;-54
2023/06/16 09:59:18;;;;;;;7.97;3.58;;;28.40;54.10;;;;;;4249153;27;20445;-55
2023/06/16 10:01:22;;;;;;;12.43;3.88;;;28.40;54.30;;;;;;4229975;28;20130;-55
2023/06/16 10:03:26;;;;;;;14.20;3.75;;;28.30;53.00;;;;;;4248949;27;20043;-57
2023/06/16 10:05:34;;;;;;;7.85;2.92;;;28.10;53.60;;;;;;4248849;27;20043;-55
2023/06/16 10:07:37;;;;;;;8.50;4.63;;;28.10;53.60;;;;;;4248855;27;20169;-55
2023/06/16 10:09:47;;;;;;;9.82;4.10;;;28.30;54.00;;;;;;4248728;27;20047;-57
2023/06/16 10:12:06;;;;;;;9.82;3.60;;;28.50;54.90;;;;;;4248534;27;20378;-55
2023/06/16 10:14:09;;;;;;;17.80;4.07;;;28.70;53.70;;;;;;4248990;27;20133;-56
2023/06/16 10:16:13;;;;;;;8.98;3.15;;;28.70;53.00;;;;;;4248697;27;20506;-55
2023/06/16 10:18:17;;;;;;;10.80;3.72;;;28.60;54.50;;;;;;4263720;27;20118;-56
2023/06/16 10:20:23;;;;;;;19.10;4.80;;;28.80;54.60;;;;;;4264887;27;20043;-54
2023/06/16 10:22:25;;;;;;;16.50;4.22;;;28.90;53.90;;;;;;4248562;27;20070;-55
2023/06/16 10:24:28;;;;;;;10.00;4.00;;;28.80;53.50;;;;;;4248287;27;20075;-54
2023/06/16 10:26:32;;;;;;;11.77;3.50;;;28.60;53.30;;;;;;4248765;27;20077;-55
2023/06/16 10:28:38;;;;;;;5.70;3.20;;;28.50;53.50;;;;;;4248434;27;20057;-55
2023/06/16 10:30:41;;;;;;;12.63;3.60;;;28.50;52.80;;;;;;4247398;27;20043;-54
2023/06/16 10:32:47;;;;;;;7.30;3.45;;;28.40;53.30;;;;;;4248332;27;20043;-53
2023/06/16 10:34:56;;;;;;;7.78;3.53;;;28.30;52.50;;;;;;4248683;27;20100;-54
2023/06/16 10:36:59;;;;;;;27.52;4.65;;;28.30;52.40;;;;;;4248292;27;20104;-55
2023/06/16 10:39:09;;;;;;;22.63;3.55;;;28.40;53.40;;;;;;4248047;27;20134;-55